sensor_id;sensor_type;location;lat;lon;timestamp;pressure;altitude;pressure_sealevel;temperature;humidity
14293;BME280;62290;59.420;17.842;2023-05-19T00:00:59;102630.34;;;22.08;30.23
14293;BME280;62290;59.420;17.842;2023-05-19T00:03:28;102639.38;;;22.07;30.38
14293;BME280;62290;59.420;17.842;2023-05-19T00:05:57;102598.47;;;21.84;30.14
14293;BME280;62290;59.420;17.842;2023-05-19T00:08:30;102619.75;;;21.88;30.27
14293;BME280;62290;59.420;17.842;2023-05-19T00:11:00;102647.66;;;22.03;30.25
14293;BME280;62290;59.420;17.842;2023-05-19T00:13:28;102647.72;;;22.01;30.19
14293;BME280;62290;59.420;17.842;2023-05-19T00:15:57;102651.44;;;21.99;30.22
14293;BME280;62290;59.420;17.842;2023-05-19T00:18:25;102650.56;;;21.98;30.47
14293;BME280;62290;59.420;17.842;2023-05-19T00:20:55;102654.13;;;21.99;30.27
14293;BME280;62290;59.420;17.842;2023-05-19T00:23:23;102648.91;;;21.96;30.13
14293;BME280;62290;59.420;17.842;2023-05-19T00:25:52;102649.88;;;21.95;30.45
14293;BME280;62290;59.420;17.842;2023-05-19T00:28:20;102644.50;;;21.95;30.44
14293;BME280;62290;59.420;17.842;2023-05-19T00:30:49;102647.22;;;21.93;30.37
14293;BME280;62290;59.420;17.842;2023-05-19T00:33:17;102648.19;;;21.92;30.38
14293;BME280;62290;59.420;17.842;2023-05-19T00:35:46;102649.03;;;21.93;30.18
14293;BME280;62290;59.420;17.842;2023-05-19T00:38:14;102651.81;;;21.91;30.21
14293;BME280;62290;59.420;17.842;2023-05-19T00:40:42;102654.50;;;21.91;30.24
14293;BME280;62290;59.420;17.842;2023-05-19T00:43:12;102649.38;;;21.87;30.29
14293;BME280;62290;59.420;17.842;2023-05-19T00:45:40;102658.31;;;21.87;30.35
14293;BME280;62290;59.420;17.842;2023-05-19T00:48:08;102664.50;;;21.88;30.37
14293;BME280;62290;59.420;17.842;2023-05-19T00:50:36;102656.56;;;21.86;30.38
14293;BME280;62290;59.420;17.842;2023-05-19T00:53:04;102658.34;;;21.86;30.36
14293;BME280;62290;59.420;17.842;2023-05-19T00:55:33;102669.09;;;21.86;30.33
14293;BME280;62290;59.420;17.842;2023-05-19T00:58:04;102665.59;;;21.84;30.36
14293;BME280;62290;59.420;17.842;2023-05-19T01:00:34;102656.91;;;21.79;30.68
14293;BME280;62290;59.420;17.842;2023-05-19T01:03:04;102660.38;;;21.81;30.54
14293;BME280;62290;59.420;17.842;2023-05-19T01:05:39;102674.72;;;21.80;30.35
14293;BME280;62290;59.420;17.842;2023-05-19T01:08:10;102669.34;;;21.80;30.78
14293;BME280;62290;59.420;17.842;2023-05-19T01:10:39;102671.25;;;21.78;30.76
14293;BME280;62290;59.420;17.842;2023-05-19T01:13:07;102670.47;;;21.76;30.55
14293;BME280;62290;59.420;17.842;2023-05-19T01:15:43;102669.69;;;21.74;30.43
14293;BME280;62290;59.420;17.842;2023-05-19T01:18:23;102672.38;;;21.74;30.86
14293;BME280;62290;59.420;17.842;2023-05-19T01:21:03;102655.75;;;21.66;30.56
14293;BME280;62290;59.420;17.842;2023-05-19T01:23:42;102676.06;;;21.71;30.46
14293;BME280;62290;59.420;17.842;2023-05-19T01:26:26;102669.88;;;21.69;30.83
14293;BME280;62290;59.420;17.842;2023-05-19T01:29:07;102672.66;;;21.68;30.86
14293;BME280;62290;59.420;17.842;2023-05-19T01:31:37;102672.66;;;21.68;30.70
14293;BME280;62290;59.420;17.842;2023-05-19T01:34:08;102671.00;;;21.65;30.84
14293;BME280;62290;59.420;17.842;2023-05-19T01:36:39;102675.47;;;21.65;30.72
14293;BME280;62290;59.420;17.842;2023-05-19T01:39:12;102683.63;;;21.63;30.66
14293;BME280;62290;59.420;17.842;2023-05-19T01:41:42;102680.06;;;21.63;30.48
14293;BME280;62290;59.420;17.842;2023-05-19T01:44:11;102679.19;;;21.62;30.80
14293;BME280;62290;59.420;17.842;2023-05-19T01:46:41;102677.38;;;21.63;30.85
14293;BME280;62290;59.420;17.842;2023-05-19T01:49:12;102678.25;;;21.63;30.58
14293;BME280;62290;59.420;17.842;2023-05-19T01:51:40;102676.59;;;21.61;30.40
14293;BME280;62290;59.420;17.842;2023-05-19T01:54:08;102677.47;;;21.61;30.82
14293;BME280;62290;59.420;17.842;2023-05-19T01:56:42;102681.00;;;21.62;30.66
14293;BME280;62290;59.420;17.842;2023-05-19T01:59:22;102673.91;;;21.61;30.57
14293;BME280;62290;59.420;17.842;2023-05-19T02:01:58;102676.72;;;21.58;30.67
14293;BME280;62290;59.420;17.842;2023-05-19T02:04:33;102681.16;;;21.59;30.72
14293;BME280;62290;59.420;17.842;2023-05-19T02:07:12;102683.84;;;21.59;30.91
14293;BME280;62290;59.420;17.842;2023-05-19T02:09:50;102676.97;;;21.53;30.92
14293;BME280;62290;59.420;17.842;2023-05-19T02:12:23;102686.59;;;21.57;30.92
14293;BME280;62290;59.420;17.842;2023-05-19T02:14:59;102691.06;;;21.57;30.50
14293;BME280;62290;59.420;17.842;2023-05-19T02:17:35;102688.53;;;21.53;30.83
14293;BME280;62290;59.420;17.842;2023-05-19T02:20:06;102686.81;;;21.52;30.60
14293;BME280;62290;59.420;17.842;2023-05-19T02:22:35;102694.06;;;21.50;30.59
14293;BME280;62290;59.420;17.842;2023-05-19T02:25:04;102693.19;;;21.50;30.80
14293;BME280;62290;59.420;17.842;2023-05-19T02:27:32;102686.97;;;21.49;30.96
14293;BME280;62290;59.420;17.842;2023-05-19T02:30:01;102691.44;;;21.49;30.96
14293;BME280;62290;59.420;17.842;2023-05-19T02:32:30;102693.25;;;21.48;30.63
14293;BME280;62290;59.420;17.842;2023-05-19T02:34:59;102688.75;;;21.49;30.92
14293;BME280;62290;59.420;17.842;2023-05-19T02:37:27;102691.53;;;21.47;31.05
14293;BME280;62290;59.420;17.842;2023-05-19T02:39:57;102691.53;;;21.47;30.72
14293;BME280;62290;59.420;17.842;2023-05-19T02:42:25;102685.38;;;21.45;30.72
14293;BME280;62290;59.420;17.842;2023-05-19T02:44:53;102690.75;;;21.45;30.85
14293;BME280;62290;59.420;17.842;2023-05-19T02:47:21;102685.44;;;21.44;30.75
14293;BME280;62290;59.420;17.842;2023-05-19T02:49:49;102666.22;;;21.34;30.85
14293;BME280;62290;59.420;17.842;2023-05-19T02:52:19;102597.56;;;20.93;31.02
14293;BME280;62290;59.420;17.842;2023-05-19T02:54:47;102696.09;;;21.45;30.90
14293;BME280;62290;59.420;17.842;2023-05-19T02:57:15;102692.53;;;21.45;31.02
14293;BME280;62290;59.420;17.842;2023-05-19T02:59:43;102678.53;;;21.38;30.84
14293;BME280;62290;59.420;17.842;2023-05-19T03:02:12;102693.44;;;21.45;30.97
14293;BME280;62290;59.420;17.842;2023-05-19T03:04:40;102689.88;;;21.45;30.98
14293;BME280;62290;59.420;17.842;2023-05-19T03:07:09;102695.22;;;21.45;31.25
14293;BME280;62290;59.420;17.842;2023-05-19T03:09:40;102692.47;;;21.46;31.10
14293;BME280;62290;59.420;17.842;2023-05-19T03:12:08;102690.75;;;21.45;30.83
14293;BME280;62290;59.420;17.842;2023-05-19T03:14:36;102684.69;;;21.40;30.98
14293;BME280;62290;59.420;17.842;2023-05-19T03:17:05;102700.38;;;21.49;31.27
14293;BME280;62290;59.420;17.842;2023-05-19T03:19:36;102697.59;;;21.51;30.81
14293;BME280;62290;59.420;17.842;2023-05-19T03:22:04;102702.91;;;21.52;31.13
14293;BME280;62290;59.420;17.842;2023-05-19T03:24:33;102709.06;;;21.54;30.84
14293;BME280;62290;59.420;17.842;2023-05-19T03:27:03;102698.09;;;21.59;31.10
14293;BME280;62290;59.420;17.842;2023-05-19T03:29:32;102712.03;;;21.67;30.87
14293;BME280;62290;59.420;17.842;2023-05-19T03:32:01;102714.44;;;21.73;31.06
14293;BME280;62290;59.420;17.842;2023-05-19T03:34:29;102710.59;;;21.79;31.02
14293;BME280;62290;59.420;17.842;2023-05-19T03:36:58;102718.50;;;21.82;30.79
14293;BME280;62290;59.420;17.842;2023-05-19T03:39:26;102719.97;;;21.89;30.81
14293;BME280;62290;59.420;17.842;2023-05-19T03:41:54;102720.59;;;21.94;30.60
14293;BME280;62290;59.420;17.842;2023-05-19T03:44:24;102716.75;;;21.99;31.10
14293;BME280;62290;59.420;17.842;2023-05-19T03:46:52;102720.16;;;22.03;30.65
14293;BME280;62290;59.420;17.842;2023-05-19T03:49:26;102719.84;;;22.09;30.91
14293;BME280;62290;59.420;17.842;2023-05-19T03:52:03;102718.75;;;22.13;30.67
14293;BME280;62290;59.420;17.842;2023-05-19T03:54:43;102717.63;;;22.17;30.55
14293;BME280;62290;59.420;17.842;2023-05-19T03:57:13;102693.94;;;22.08;30.57
14293;BME280;62290;59.420;17.842;2023-05-19T03:59:42;102713.88;;;22.21;30.75
14293;BME280;62290;59.420;17.842;2023-05-19T04:02:10;102717.88;;;22.30;30.72
14293;BME280;62290;59.420;17.842;2023-05-19T04:04:38;102722.09;;;22.35;30.99
14293;BME280;62290;59.420;17.842;2023-05-19T04:07:07;102722.72;;;22.40;31.07
14293;BME280;62290;59.420;17.842;2023-05-19T04:09:35;102723.34;;;22.45;31.07
14293;BME280;62290;59.420;17.842;2023-05-19T04:12:03;102733.78;;;22.51;30.95
14293;BME280;62290;59.420;17.842;2023-05-19T04:14:32;102721.22;;;22.52;30.92
14293;BME280;62290;59.420;17.842;2023-05-19T04:17:01;102727.09;;;22.60;31.04
14293;BME280;62290;59.420;17.842;2023-05-19T04:19:29;102727.81;;;22.63;31.13
14293;BME280;62290;59.420;17.842;2023-05-19T04:21:57;102726.63;;;22.69;31.11
14293;BME280;62290;59.420;17.842;2023-05-19T04:24:25;102723.69;;;22.73;31.13
14293;BME280;62290;59.420;17.842;2023-05-19T04:26:54;102659.25;;;22.38;30.96
14293;BME280;62290;59.420;17.842;2023-05-19T04:29:22;102733.19;;;22.81;31.32
14293;BME280;62290;59.420;17.842;2023-05-19T04:31:51;102728.50;;;22.84;31.17
14293;BME280;62290;59.420;17.842;2023-05-19T04:34:21;102722.28;;;22.84;31.13
14293;BME280;62290;59.420;17.842;2023-05-19T04:36:49;102732.53;;;22.93;31.22
14293;BME280;62290;59.420;17.842;2023-05-19T04:39:20;102729.69;;;22.96;31.19
14293;BME280;62290;59.420;17.842;2023-05-19T04:41:50;102730.31;;;23.01;31.28
14293;BME280;62290;59.420;17.842;2023-05-19T04:44:19;102731.03;;;23.04;31.13
14293;BME280;62290;59.420;17.842;2023-05-19T04:46:49;102732.69;;;23.07;31.31
14293;BME280;62290;59.420;17.842;2023-05-19T04:49:22;102728.69;;;23.14;31.30
14293;BME280;62290;59.420;17.842;2023-05-19T04:51:54;102732.09;;;23.17;31.13
14293;BME280;62290;59.420;17.842;2023-05-19T04:54:26;102733.59;;;23.23;31.43
14293;BME280;62290;59.420;17.842;2023-05-19T04:56:55;102730.53;;;23.29;31.79
14293;BME280;62290;59.420;17.842;2023-05-19T04:59:26;102727.47;;;23.37;32.55
14293;BME280;62290;59.420;17.842;2023-05-19T05:01:54;102718.44;;;23.38;33.24
14293;BME280;62290;59.420;17.842;2023-05-19T05:04:25;102729.56;;;23.47;33.78
14293;BME280;62290;59.420;17.842;2023-05-19T05:06:54;102729.50;;;23.49;33.62
14293;BME280;62290;59.420;17.842;2023-05-19T05:09:23;102728.47;;;23.51;33.55
14293;BME280;62290;59.420;17.842;2023-05-19T05:11:52;102734.63;;;23.53;33.26
14293;BME280;62290;59.420;17.842;2023-05-19T05:14:21;102724.97;;;23.49;32.97
14293;BME280;62290;59.420;17.842;2023-05-19T05:16:49;102724.47;;;23.58;32.93
14293;BME280;62290;59.420;17.842;2023-05-19T05:19:22;102730.56;;;23.62;32.71
14293;BME280;62290;59.420;17.842;2023-05-19T05:21:52;102734.78;;;23.66;32.85
14293;BME280;62290;59.420;17.842;2023-05-19T05:24:20;102734.63;;;23.69;32.73
14293;BME280;62290;59.420;17.842;2023-05-19T05:26:53;102736.28;;;23.71;32.64
14293;BME280;62290;59.420;17.842;2023-05-19T05:29:21;102740.63;;;23.74;32.94
14293;BME280;62290;59.420;17.842;2023-05-19T05:31:50;102741.41;;;23.76;33.01
14293;BME280;62290;59.420;17.842;2023-05-19T05:34:18;102738.25;;;23.83;33.04
14293;BME280;62290;59.420;17.842;2023-05-19T05:36:47;102745.31;;;23.86;33.21
14293;BME280;62290;59.420;17.842;2023-05-19T05:39:17;102743.31;;;23.89;32.95
14293;BME280;62290;59.420;17.842;2023-05-19T05:41:45;102747.75;;;23.90;32.60
14293;BME280;62290;59.420;17.842;2023-05-19T05:44:13;102746.59;;;23.94;32.55
14293;BME280;62290;59.420;17.842;2023-05-19T05:46:44;102750.00;;;23.98;32.40
14293;BME280;62290;59.420;17.842;2023-05-19T05:49:13;102750.69;;;24.02;32.44
14293;BME280;62290;59.420;17.842;2023-05-19T05:51:44;102758.69;;;24.03;32.00
14293;BME280;62290;59.420;17.842;2023-05-19T05:54:30;102758.53;;;24.06;31.95
14293;BME280;62290;59.420;17.842;2023-05-19T05:56:59;102762.91;;;24.09;31.80
14293;BME280;62290;59.420;17.842;2023-05-19T05:59:28;102762.69;;;24.12;31.75
14293;BME280;62290;59.420;17.842;2023-05-19T06:01:56;102765.31;;;24.13;31.71
14293;BME280;62290;59.420;17.842;2023-05-19T06:04:24;102767.84;;;24.16;31.85
14293;BME280;62290;59.420;17.842;2023-05-19T06:06:53;102764.09;;;24.19;31.73
14293;BME280;62290;59.420;17.842;2023-05-19T06:09:31;102769.31;;;24.22;31.55
14293;BME280;62290;59.420;17.842;2023-05-19T06:12:00;102761.22;;;24.22;31.67
14293;BME280;62290;59.420;17.842;2023-05-19T06:14:34;102765.47;;;24.26;31.49
14293;BME280;62290;59.420;17.842;2023-05-19T06:17:20;102761.81;;;24.27;31.49
14293;BME280;62290;59.420;17.842;2023-05-19T06:19:50;102771.56;;;24.29;31.25
14293;BME280;62290;59.420;17.842;2023-05-19T06:22:18;102766.94;;;24.31;31.27
14293;BME280;62290;59.420;17.842;2023-05-19T06:24:48;102771.38;;;24.32;31.10
14293;BME280;62290;59.420;17.842;2023-05-19T06:27:18;102771.28;;;24.34;30.71
14293;BME280;62290;59.420;17.842;2023-05-19T06:29:46;102776.50;;;24.37;30.97
14293;BME280;62290;59.420;17.842;2023-05-19T06:32:14;102774.56;;;24.39;30.84
14293;BME280;62290;59.420;17.842;2023-05-19T06:34:42;102771.88;;;24.39;30.56
14293;BME280;62290;59.420;17.842;2023-05-19T06:37:11;102765.53;;;24.40;30.56
14293;BME280;62290;59.420;17.842;2023-05-19T06:39:40;102778.91;;;24.41;30.47
14293;BME280;62290;59.420;17.842;2023-05-19T06:42:10;102774.28;;;24.43;30.28
14293;BME280;62290;59.420;17.842;2023-05-19T06:45:06;102768.84;;;24.45;30.27
14293;BME280;62290;59.420;17.842;2023-05-19T06:47:34;102767.84;;;24.46;29.96
14293;BME280;62290;59.420;17.842;2023-05-19T06:50:03;102760.75;;;24.45;29.92
14293;BME280;62290;59.420;17.842;2023-05-19T06:52:34;102773.00;;;24.50;29.78
14293;BME280;62290;59.420;17.842;2023-05-19T06:55:02;102780.97;;;24.52;29.90
14293;BME280;62290;59.420;17.842;2023-05-19T06:57:33;102765.97;;;24.48;29.77
14293;BME280;62290;59.420;17.842;2023-05-19T07:00:02;102777.22;;;24.54;29.39
14293;BME280;62290;59.420;17.842;2023-05-19T07:02:32;102776.19;;;24.57;29.28
14293;BME280;62290;59.420;17.842;2023-05-19T07:05:02;102784.16;;;24.58;29.52
14293;BME280;62290;59.420;17.842;2023-05-19T07:07:31;102780.53;;;24.60;29.36
14293;BME280;62290;59.420;17.842;2023-05-19T07:09:59;102780.34;;;24.63;29.11
14293;BME280;62290;59.420;17.842;2023-05-19T07:12:29;102777.53;;;24.64;29.00
14293;BME280;62290;59.420;17.842;2023-05-19T07:14:59;102793.66;;;24.66;28.88
14293;BME280;62290;59.420;17.842;2023-05-19T07:17:27;102763.34;;;24.46;29.28
14293;BME280;62290;59.420;17.842;2023-05-19T07:19:57;102762.97;;;24.52;29.17
14293;BME280;62290;59.420;17.842;2023-05-19T07:22:26;102797.81;;;24.71;28.96
14293;BME280;62290;59.420;17.842;2023-05-19T07:24:54;102788.91;;;24.69;29.27
14293;BME280;62290;59.420;17.842;2023-05-19T07:27:22;102800.28;;;24.74;29.41
14293;BME280;62290;59.420;17.842;2023-05-19T07:29:50;102773.91;;;24.65;29.26
14293;BME280;62290;59.420;17.842;2023-05-19T07:32:20;102794.72;;;24.77;29.33
14293;BME280;62290;59.420;17.842;2023-05-19T07:34:48;102787.88;;;24.72;29.41
14293;BME280;62290;59.420;17.842;2023-05-19T07:37:16;102795.69;;;24.76;29.16
14293;BME280;62290;59.420;17.842;2023-05-19T07:39:45;102798.41;;;24.76;29.19
14293;BME280;62290;59.420;17.842;2023-05-19T07:42:12;102800.94;;;24.79;28.86
14293;BME280;62290;59.420;17.842;2023-05-19T07:44:40;102805.47;;;24.79;28.93
14293;BME280;62290;59.420;17.842;2023-05-19T07:47:08;102806.34;;;24.79;28.63
14293;BME280;62290;59.420;17.842;2023-05-19T07:49:38;102805.38;;;24.80;28.34
14293;BME280;62290;59.420;17.842;2023-05-19T07:52:06;102802.78;;;24.79;28.24
14293;BME280;62290;59.420;17.842;2023-05-19T07:54:34;102800.06;;;24.79;28.29
14293;BME280;62290;59.420;17.842;2023-05-19T07:57:02;102795.69;;;24.76;28.16
14293;BME280;62290;59.420;17.842;2023-05-19T07:59:30;102800.13;;;24.77;27.90
14293;BME280;62290;59.420;17.842;2023-05-19T08:01:58;102799.28;;;24.77;27.71
14293;BME280;62290;59.420;17.842;2023-05-19T08:04:26;102799.28;;;24.77;28.05
14293;BME280;62290;59.420;17.842;2023-05-19T08:06:56;102793.88;;;24.77;27.50
14293;BME280;62290;59.420;17.842;2023-05-19T08:09:24;102798.41;;;24.76;27.50
14293;BME280;62290;59.420;17.842;2023-05-19T08:11:52;102795.69;;;24.76;27.81
14293;BME280;62290;59.420;17.842;2023-05-19T08:14:20;102791.25;;;24.75;27.28
14293;BME280;62290;59.420;17.842;2023-05-19T08:16:48;102790.38;;;24.75;27.15
14293;BME280;62290;59.420;17.842;2023-05-19T08:19:17;102792.19;;;24.74;27.27
14293;BME280;62290;59.420;17.842;2023-05-19T08:21:45;102789.50;;;24.74;27.29
14293;BME280;62290;59.420;17.842;2023-05-19T08:24:15;102786.91;;;24.73;27.07
14293;BME280;62290;59.420;17.842;2023-05-19T08:26:43;102787.88;;;24.72;27.29
14293;BME280;62290;59.420;17.842;2023-05-19T08:29:11;102792.41;;;24.71;26.95
14293;BME280;62290;59.420;17.842;2023-05-19T08:31:39;102791.44;;;24.72;27.20
14293;BME280;62290;59.420;17.842;2023-05-19T08:34:07;102786.16;;;24.71;27.00
14293;BME280;62290;59.420;17.842;2023-05-19T08:36:35;102781.63;;;24.71;26.96
14293;BME280;62290;59.420;17.842;2023-05-19T08:39:03;102787.03;;;24.71;27.00
14293;BME280;62290;59.420;17.842;2023-05-19T08:41:33;102787.09;;;24.70;26.77
14293;BME280;62290;59.420;17.842;2023-05-19T08:44:01;102779.00;;;24.70;26.64
14293;BME280;62290;59.420;17.842;2023-05-19T08:46:30;102786.16;;;24.71;26.66
14293;BME280;62290;59.420;17.842;2023-05-19T08:49:12;102780.81;;;24.69;26.63
14293;BME280;62290;59.420;17.842;2023-05-19T08:51:47;102788.84;;;24.71;26.52
14293;BME280;62290;59.420;17.842;2023-05-19T08:54:17;102699.44;;;24.19;26.54
14293;BME280;62290;59.420;17.842;2023-05-19T08:56:47;102786.16;;;24.71;26.72
14293;BME280;62290;59.420;17.842;2023-05-19T08:59:16;102791.63;;;24.69;26.86
14293;BME280;62290;59.420;17.842;2023-05-19T09:01:45;102763.66;;;24.56;26.87
14293;BME280;62290;59.420;17.842;2023-05-19T09:04:14;102784.56;;;24.67;26.86
14293;BME280;62290;59.420;17.842;2023-05-19T09:06:43;102787.19;;;24.68;26.86
14293;BME280;62290;59.420;17.842;2023-05-19T09:09:11;102781.88;;;24.67;26.97
14293;BME280;62290;59.420;17.842;2023-05-19T09:11:39;102775.66;;;24.66;26.81
14293;BME280;62290;59.420;17.842;2023-05-19T09:14:09;102773.78;;;24.67;26.56
14293;BME280;62290;59.420;17.842;2023-05-19T09:16:38;102777.53;;;24.64;26.80
14293;BME280;62290;59.420;17.842;2023-05-19T09:19:12;102777.53;;;24.64;26.57
14293;BME280;62290;59.420;17.842;2023-05-19T09:21:41;102777.66;;;24.63;26.57
14293;BME280;62290;59.420;17.842;2023-05-19T09:24:10;102773.19;;;24.62;26.74
14293;BME280;62290;59.420;17.842;2023-05-19T09:26:39;102751.59;;;24.47;26.53
14293;BME280;62290;59.420;17.842;2023-05-19T09:29:12;102766.16;;;24.59;26.82
14293;BME280;62290;59.420;17.842;2023-05-19T09:31:47;102772.53;;;24.58;26.41
14293;BME280;62290;59.420;17.842;2023-05-19T09:34:16;102731.72;;;24.34;26.62
14293;BME280;62290;59.420;17.842;2023-05-19T09:36:45;102769.91;;;24.56;26.67
14293;BME280;62290;59.420;17.842;2023-05-19T09:39:15;102762.09;;;24.52;26.79
14293;BME280;62290;59.420;17.842;2023-05-19T09:41:44;102770.19;;;24.52;26.71
14293;BME280;62290;59.420;17.842;2023-05-19T09:44:21;102772.88;;;24.52;26.88
14293;BME280;62290;59.420;17.842;2023-05-19T09:46:50;102764.91;;;24.50;26.58
14293;BME280;62290;59.420;17.842;2023-05-19T09:49:20;102768.66;;;24.48;26.94
14293;BME280;62290;59.420;17.842;2023-05-19T09:51:49;102759.69;;;24.47;26.56
14293;BME280;62290;59.420;17.842;2023-05-19T09:54:19;102762.38;;;24.47;26.59
14293;BME280;62290;59.420;17.842;2023-05-19T09:56:50;102757.88;;;24.48;26.72
14293;BME280;62290;59.420;17.842;2023-05-19T09:59:23;102756.22;;;24.45;26.60
14293;BME280;62290;59.420;17.842;2023-05-19T10:01:53;102759.88;;;24.44;26.75
14293;BME280;62290;59.420;17.842;2023-05-19T10:04:23;102729.56;;;24.25;27.06
14293;BME280;62290;59.420;17.842;2023-05-19T10:06:53;102766.13;;;24.45;26.85
14293;BME280;62290;59.420;17.842;2023-05-19T10:09:22;102758.13;;;24.43;26.77
14293;BME280;62290;59.420;17.842;2023-05-19T10:11:51;102749.25;;;24.41;26.94
14293;BME280;62290;59.420;17.842;2023-05-19T10:14:23;102745.69;;;24.41;27.08
14293;BME280;62290;59.420;17.842;2023-05-19T10:16:53;102744.03;;;24.38;26.98
14293;BME280;62290;59.420;17.842;2023-05-19T10:19:22;102752.06;;;24.40;27.02
14293;BME280;62290;59.420;17.842;2023-05-19T10:21:51;102708.63;;;24.15;27.05
14293;BME280;62290;59.420;17.842;2023-05-19T10:24:19;102745.03;;;24.37;26.98
14293;BME280;62290;59.420;17.842;2023-05-19T10:26:51;102752.06;;;24.40;26.88
14293;BME280;62290;59.420;17.842;2023-05-19T10:29:24;102752.06;;;24.40;27.24
14293;BME280;62290;59.420;17.842;2023-05-19T10:31:54;102747.72;;;24.37;27.12
14293;BME280;62290;59.420;17.842;2023-05-19T10:34:36;102747.72;;;24.37;27.14
14293;BME280;62290;59.420;17.842;2023-05-19T10:37:23;102749.53;;;24.37;27.21
14293;BME280;62290;59.420;17.842;2023-05-19T10:39:56;102748.78;;;24.35;27.11
14293;BME280;62290;59.420;17.842;2023-05-19T10:42:37;102745.09;;;24.36;27.36
14293;BME280;62290;59.420;17.842;2023-05-19T10:45:13;102744.31;;;24.34;27.04
14293;BME280;62290;59.420;17.842;2023-05-19T10:47:44;102746.25;;;24.32;27.30
14293;BME280;62290;59.420;17.842;2023-05-19T10:50:12;102738.34;;;24.29;27.20
14293;BME280;62290;59.420;17.842;2023-05-19T10:52:40;102739.28;;;24.28;27.28
14293;BME280;62290;59.420;17.842;2023-05-19T10:55:11;102742.97;;;24.27;27.33
14293;BME280;62290;59.420;17.842;2023-05-19T10:57:52;102748.34;;;24.27;27.42
14293;BME280;62290;59.420;17.842;2023-05-19T11:00:30;102741.22;;;24.26;27.41
14293;BME280;62290;59.420;17.842;2023-05-19T11:03:11;102745.84;;;24.24;27.58
14293;BME280;62290;59.420;17.842;2023-05-19T11:05:40;102747.75;;;24.22;27.59
14293;BME280;62290;59.420;17.842;2023-05-19T11:08:11;102742.38;;;24.22;27.53
14293;BME280;62290;59.420;17.842;2023-05-19T11:10:43;102741.38;;;24.23;27.46
14293;BME280;62290;59.420;17.842;2023-05-19T11:13:18;102746.00;;;24.21;27.71
14293;BME280;62290;59.420;17.842;2023-05-19T11:15:49;102723.25;;;24.11;27.85
14293;BME280;62290;59.420;17.842;2023-05-19T11:18:18;102737.16;;;24.19;27.57
14293;BME280;62290;59.420;17.842;2023-05-19T11:20:54;102739.84;;;24.19;27.70
14293;BME280;62290;59.420;17.842;2023-05-19T11:23:24;102749.75;;;24.18;27.87
14293;BME280;62290;59.420;17.842;2023-05-19T11:25:53;102739.91;;;24.17;27.72
14293;BME280;62290;59.420;17.842;2023-05-19T11:28:22;102714.72;;;24.03;28.00
14293;BME280;62290;59.420;17.842;2023-05-19T11:30:55;102754.25;;;24.18;27.71
14293;BME280;62290;59.420;17.842;2023-05-19T11:33:25;102747.16;;;24.17;27.86
14293;BME280;62290;59.420;17.842;2023-05-19T11:35:54;102733.28;;;24.07;27.70
14293;BME280;62290;59.420;17.842;2023-05-19T11:38:25;102752.44;;;24.18;27.76
14293;BME280;62290;59.420;17.842;2023-05-19T11:40:54;102747.06;;;24.18;27.52
14293;BME280;62290;59.420;17.842;2023-05-19T11:43:23;102741.66;;;24.18;27.51
14293;BME280;62290;59.420;17.842;2023-05-19T11:45:54;102745.31;;;24.17;27.52
14293;BME280;62290;59.420;17.842;2023-05-19T11:48:23;102744.47;;;24.17;27.60
14293;BME280;62290;59.420;17.842;2023-05-19T11:50:51;102746.19;;;24.18;27.63
14293;BME280;62290;59.420;17.842;2023-05-19T11:53:19;102747.22;;;24.15;27.61
14293;BME280;62290;59.420;17.842;2023-05-19T11:55:48;102742.72;;;24.16;27.34
14293;BME280;62290;59.420;17.842;2023-05-19T11:58:17;102751.56;;;24.18;27.53
14293;BME280;62290;59.420;17.842;2023-05-19T12:00:51;102739.31;;;24.12;27.31
14293;BME280;62290;59.420;17.842;2023-05-19T12:03:21;102661.00;;;23.70;27.25
14293;BME280;62290;59.420;17.842;2023-05-19T12:05:54;102742.72;;;24.16;27.27
14293;BME280;62290;59.420;17.842;2023-05-19T12:08:23;102747.16;;;24.17;27.44
14293;BME280;62290;59.420;17.842;2023-05-19T12:10:52;102744.47;;;24.17;27.08
14293;BME280;62290;59.420;17.842;2023-05-19T12:13:21;102748.09;;;24.16;27.16
14293;BME280;62290;59.420;17.842;2023-05-19T12:15:50;102747.22;;;24.15;27.13
14293;BME280;62290;59.420;17.842;2023-05-19T12:18:18;102740.97;;;24.15;26.96
14293;BME280;62290;59.420;17.842;2023-05-19T12:20:48;102747.31;;;24.14;26.94
14293;BME280;62290;59.420;17.842;2023-05-19T12:23:16;102747.31;;;24.14;27.04
14293;BME280;62290;59.420;17.842;2023-05-19T12:25:45;102721.03;;;24.02;26.97
14293;BME280;62290;59.420;17.842;2023-05-19T12:28:14;102748.28;;;24.13;26.96
14293;BME280;62290;59.420;17.842;2023-05-19T12:30:46;102742.00;;;24.12;26.79
14293;BME280;62290;59.420;17.842;2023-05-19T12:33:17;102738.53;;;24.10;26.58
14293;BME280;62290;59.420;17.842;2023-05-19T12:35:45;102744.81;;;24.11;26.50
14293;BME280;62290;59.420;17.842;2023-05-19T12:38:18;102745.69;;;24.11;26.39
14293;BME280;62290;59.420;17.842;2023-05-19T12:40:46;102744.94;;;24.08;26.60
14293;BME280;62290;59.420;17.842;2023-05-19T12:43:19;102743.16;;;24.08;26.34
14293;BME280;62290;59.420;17.842;2023-05-19T12:45:47;102739.56;;;24.08;26.41
14293;BME280;62290;59.420;17.842;2023-05-19T12:48:15;102747.63;;;24.08;26.24
14293;BME280;62290;59.420;17.842;2023-05-19T12:50:50;102743.16;;;24.08;26.47
14293;BME280;62290;59.420;17.842;2023-05-19T12:53:20;102740.47;;;24.08;26.42
14293;BME280;62290;59.420;17.842;2023-05-19T12:55:50;102731.94;;;24.00;26.19